sensor_id;sensor_type;location;lat;lon;timestamp;temperature;humidity
36374;DHT22;22399;51.346;12.372;2024-02-26T00:01:19;4.50;94.70
36374;DHT22;22399;51.346;12.372;2024-02-26T00:03:48;4.50;94.70
36374;DHT22;22399;51.346;12.372;2024-02-26T00:06:16;4.50;94.80
36374;DHT22;22399;51.346;12.372;2024-02-26T00:08:45;4.50;94.80
36374;DHT22;22399;51.346;12.372;2024-02-26T00:11:13;4.50;94.80
36374;DHT22;22399;51.346;12.372;2024-02-26T00:13:44;4.40;94.80
36374;DHT22;22399;51.346;12.372;2024-02-26T00:16:12;4.30;94.90
36374;DHT22;22399;51.346;12.372;2024-02-26T00:18:40;4.30;95.10
36374;DHT22;22399;51.346;12.372;2024-02-26T00:21:10;4.30;95.00
36374;DHT22;22399;51.346;12.372;2024-02-26T00:23:39;4.20;94.90
36374;DHT22;22399;51.346;12.372;2024-02-26T00:26:07;4.00;95.10
36374;DHT22;22399;51.346;12.372;2024-02-26T00:28:38;4.00;95.20
36374;DHT22;22399;51.346;12.372;2024-02-26T00:31:08;4.00;95.30
36374;DHT22;22399;51.346;12.372;2024-02-26T00:33:36;4.00;95.40
36374;DHT22;22399;51.346;12.372;2024-02-26T00:36:05;4.10;95.60
36374;DHT22;22399;51.346;12.372;2024-02-26T00:38:34;4.20;95.60
36374;DHT22;22399;51.346;12.372;2024-02-26T00:41:03;4.20;95.60
36374;DHT22;22399;51.346;12.372;2024-02-26T00:43:31;4.20;95.70
36374;DHT22;22399;51.346;12.372;2024-02-26T00:46:00;4.30;95.80
36374;DHT22;22399;51.346;12.372;2024-02-26T00:48:30;4.30;95.80
36374;DHT22;22399;51.346;12.372;2024-02-26T00:50:59;4.30;95.80
36374;DHT22;22399;51.346;12.372;2024-02-26T00:53:27;4.30;95.90
36374;DHT22;22399;51.346;12.372;2024-02-26T00:56:01;4.30;95.90
36374;DHT22;22399;51.346;12.372;2024-02-26T00:58:29;4.30;96.00
36374;DHT22;22399;51.346;12.372;2024-02-26T01:00:58;4.30;96.00
36374;DHT22;22399;51.346;12.372;2024-02-26T01:03:26;4.30;96.10
36374;DHT22;22399;51.346;12.372;2024-02-26T01:05:56;4.30;96.20
36374;DHT22;22399;51.346;12.372;2024-02-26T01:08:26;4.40;96.30
36374;DHT22;22399;51.346;12.372;2024-02-26T01:10:54;4.40;96.40
36374;DHT22;22399;51.346;12.372;2024-02-26T01:13:23;4.40;96.40
36374;DHT22;22399;51.346;12.372;2024-02-26T01:15:51;4.40;96.40
36374;DHT22;22399;51.346;12.372;2024-02-26T01:18:19;4.40;96.40
36374;DHT22;22399;51.346;12.372;2024-02-26T01:20:48;4.30;96.50
36374;DHT22;22399;51.346;12.372;2024-02-26T01:23:18;4.30;96.50
36374;DHT22;22399;51.346;12.372;2024-02-26T01:25:46;4.30;96.50
36374;DHT22;22399;51.346;12.372;2024-02-26T01:28:16;4.30;96.50
36374;DHT22;22399;51.346;12.372;2024-02-26T01:30:45;4.30;96.70
36374;DHT22;22399;51.346;12.372;2024-02-26T01:33:13;4.30;96.70
36374;DHT22;22399;51.346;12.372;2024-02-26T01:35:42;4.20;96.70
36374;DHT22;22399;51.346;12.372;2024-02-26T01:38:11;4.20;96.70
36374;DHT22;22399;51.346;12.372;2024-02-26T01:40:41;4.20;96.90
36374;DHT22;22399;51.346;12.372;2024-02-26T01:43:09;4.10;96.80
36374;DHT22;22399;51.346;12.372;2024-02-26T01:45:38;4.10;96.90
36374;DHT22;22399;51.346;12.372;2024-02-26T01:48:07;4.10;97.10
36374;DHT22;22399;51.346;12.372;2024-02-26T01:50:38;4.10;97.10
36374;DHT22;22399;51.346;12.372;2024-02-26T01:53:07;4.00;97.10
36374;DHT22;22399;51.346;12.372;2024-02-26T01:55:36;4.00;97.10
36374;DHT22;22399;51.346;12.372;2024-02-26T01:58:09;3.90;97.00
36374;DHT22;22399;51.346;12.372;2024-02-26T02:00:37;3.80;97.10
36374;DHT22;22399;51.346;12.372;2024-02-26T02:03:06;3.70;97.20
36374;DHT22;22399;51.346;12.372;2024-02-26T02:05:36;3.70;97.40
36374;DHT22;22399;51.346;12.372;2024-02-26T02:08:09;3.60;97.50
36374;DHT22;22399;51.346;12.372;2024-02-26T02:10:38;3.70;97.50
36374;DHT22;22399;51.346;12.372;2024-02-26T02:13:08;3.60;97.50
36374;DHT22;22399;51.346;12.372;2024-02-26T02:15:36;3.60;97.60
36374;DHT22;22399;51.346;12.372;2024-02-26T02:18:06;3.60;97.70
36374;DHT22;22399;51.346;12.372;2024-02-26T02:20:36;3.60;97.90
36374;DHT22;22399;51.346;12.372;2024-02-26T02:23:04;3.60;97.80
36374;DHT22;22399;51.346;12.372;2024-02-26T02:25:33;3.60;97.90
36374;DHT22;22399;51.346;12.372;2024-02-26T02:28:01;3.60;98.00
36374;DHT22;22399;51.346;12.372;2024-02-26T02:30:31;3.60;98.00
36374;DHT22;22399;51.346;12.372;2024-02-26T02:33:00;3.60;98.10
36374;DHT22;22399;51.346;12.372;2024-02-26T02:35:29;3.50;98.20
36374;DHT22;22399;51.346;12.372;2024-02-26T02:37:59;3.60;98.30
36374;DHT22;22399;51.346;12.372;2024-02-26T02:40:27;3.60;98.40
36374;DHT22;22399;51.346;12.372;2024-02-26T02:42:56;3.50;98.40
36374;DHT22;22399;51.346;12.372;2024-02-26T02:45:24;3.60;98.50
36374;DHT22;22399;51.346;12.372;2024-02-26T02:47:52;3.50;98.40
36374;DHT22;22399;51.346;12.372;2024-02-26T02:50:22;3.50;98.50
36374;DHT22;22399;51.346;12.372;2024-02-26T02:52:51;3.50;98.70
36374;DHT22;22399;51.346;12.372;2024-02-26T02:55:20;3.60;98.80
36374;DHT22;22399;51.346;12.372;2024-02-26T02:57:52;3.60;98.80
36374;DHT22;22399;51.346;12.372;2024-02-26T03:00:20;3.60;98.90
36374;DHT22;22399;51.346;12.372;2024-02-26T03:02:51;3.60;98.90
36374;DHT22;22399;51.346;12.372;2024-02-26T03:05:20;3.50;98.90
36374;DHT22;22399;51.346;12.372;2024-02-26T03:07:49;3.50;98.90
36374;DHT22;22399;51.346;12.372;2024-02-26T03:10:17;3.50;98.90
36374;DHT22;22399;51.346;12.372;2024-02-26T03:12:47;3.50;99.10
36374;DHT22;22399;51.346;12.372;2024-02-26T03:15:16;3.50;99.20
36374;DHT22;22399;51.346;12.372;2024-02-26T03:17:44;3.50;99.40
36374;DHT22;22399;51.346;12.372;2024-02-26T03:20:13;3.50;99.40
36374;DHT22;22399;51.346;12.372;2024-02-26T03:22:41;3.50;99.40
36374;DHT22;22399;51.346;12.372;2024-02-26T03:25:10;3.40;99.40
36374;DHT22;22399;51.346;12.372;2024-02-26T03:27:39;3.40;99.40
36374;DHT22;22399;51.346;12.372;2024-02-26T03:30:10;3.30;99.40
36374;DHT22;22399;51.346;12.372;2024-02-26T03:32:40;3.20;99.50
36374;DHT22;22399;51.346;12.372;2024-02-26T03:35:09;3.20;99.60
36374;DHT22;22399;51.346;12.372;2024-02-26T03:37:37;3.10;99.70
36374;DHT22;22399;51.346;12.372;2024-02-26T03:40:07;3.10;99.70
36374;DHT22;22399;51.346;12.372;2024-02-26T03:42:36;3.00;99.80
36374;DHT22;22399;51.346;12.372;2024-02-26T03:45:05;3.00;99.90
36374;DHT22;22399;51.346;12.372;2024-02-26T03:47:37;2.90;99.90
36374;DHT22;22399;51.346;12.372;2024-02-26T03:50:06;2.90;99.90
36374;DHT22;22399;51.346;12.372;2024-02-26T03:52:35;2.80;99.90
36374;DHT22;22399;51.346;12.372;2024-02-26T03:55:03;2.80;99.90
36374;DHT22;22399;51.346;12.372;2024-02-26T03:57:32;2.80;99.90
36374;DHT22;22399;51.346;12.372;2024-02-26T04:00:00;2.70;99.90
36374;DHT22;22399;51.346;12.372;2024-02-26T04:02:38;2.70;99.90
36374;DHT22;22399;51.346;12.372;2024-02-26T04:05:09;2.70;99.90
36374;DHT22;22399;51.346;12.372;2024-02-26T04:07:39;2.70;99.90
36374;DHT22;22399;51.346;12.372;2024-02-26T04:10:10;2.70;99.90
36374;DHT22;22399;51.346;12.372;2024-02-26T04:12:39;2.70;99.90
36374;DHT22;22399;51.346;12.372;2024-02-26T04:15:10;2.70;99.90
36374;DHT22;22399;51.346;12.372;2024-02-26T04:17:42;2.70;99.90
36374;DHT22;22399;51.346;12.372;2024-02-26T04:20:15;2.70;99.90
36374;DHT22;22399;51.346;12.372;2024-02-26T04:22:44;2.70;99.90
36374;DHT22;22399;51.346;12.372;2024-02-26T04:25:13;2.70;99.90
36374;DHT22;22399;51.346;12.372;2024-02-26T04:27:41;2.70;99.90
36374;DHT22;22399;51.346;12.372;2024-02-26T04:30:12;2.80;99.90
36374;DHT22;22399;51.346;12.372;2024-02-26T04:32:42;2.80;99.90
36374;DHT22;22399;51.346;12.372;2024-02-26T04:35:11;2.70;99.90
36374;DHT22;22399;51.346;12.372;2024-02-26T04:37:39;2.70;99.90
36374;DHT22;22399;51.346;12.372;2024-02-26T04:40:08;2.70;99.90
36374;DHT22;22399;51.346;12.372;2024-02-26T04:42:37;2.70;99.90
36374;DHT22;22399;51.346;12.372;2024-02-26T04:45:06;2.70;99.90
36374;DHT22;22399;51.346;12.372;2024-02-26T04:47:35;2.80;99.90
36374;DHT22;22399;51.346;12.372;2024-02-26T04:50:06;2.80;99.90
36374;DHT22;22399;51.346;12.372;2024-02-26T04:52:34;2.80;99.90
36374;DHT22;22399;51.346;12.372;2024-02-26T04:55:03;2.80;99.90
36374;DHT22;22399;51.346;12.372;2024-02-26T04:57:32;2.80;99.90
36374;DHT22;22399;51.346;12.372;2024-02-26T05:00:00;2.80;99.90
36374;DHT22;22399;51.346;12.372;2024-02-26T05:02:30;2.80;99.90
36374;DHT22;22399;51.346;12.372;2024-02-26T05:05:00;2.80;99.90
36374;DHT22;22399;51.346;12.372;2024-02-26T05:07:30;2.80;99.90
36374;DHT22;22399;51.346;12.372;2024-02-26T05:09:59;2.80;99.90
36374;DHT22;22399;51.346;12.372;2024-02-26T05:12:27;2.80;99.90
36374;DHT22;22399;51.346;12.372;2024-02-26T05:14:56;2.80;99.90
36374;DHT22;22399;51.346;12.372;2024-02-26T05:17:24;2.80;99.90
36374;DHT22;22399;51.346;12.372;2024-02-26T05:19:53;2.70;99.90
36374;DHT22;22399;51.346;12.372;2024-02-26T05:22:21;2.70;99.90
36374;DHT22;22399;51.346;12.372;2024-02-26T05:24:51;2.70;99.90
36374;DHT22;22399;51.346;12.372;2024-02-26T05:27:19;2.70;99.90
36374;DHT22;22399;51.346;12.372;2024-02-26T05:29:48;2.70;99.90
36374;DHT22;22399;51.346;12.372;2024-02-26T05:32:19;2.70;99.90
36374;DHT22;22399;51.346;12.372;2024-02-26T05:34:47;2.70;99.90
36374;DHT22;22399;51.346;12.372;2024-02-26T05:37:14;2.70;99.90
36374;DHT22;22399;51.346;12.372;2024-02-26T05:39:44;2.70;99.90
36374;DHT22;22399;51.346;12.372;2024-02-26T05:42:14;2.70;99.90
36374;DHT22;22399;51.346;12.372;2024-02-26T05:44:42;2.70;99.90
36374;DHT22;22399;51.346;12.372;2024-02-26T05:47:11;2.70;99.90
36374;DHT22;22399;51.346;12.372;2024-02-26T05:49:40;2.70;99.90
36374;DHT22;22399;51.346;12.372;2024-02-26T05:52:11;2.70;99.90
36374;DHT22;22399;51.346;12.372;2024-02-26T05:54:41;2.70;99.90
36374;DHT22;22399;51.346;12.372;2024-02-26T05:57:09;2.70;99.90
36374;DHT22;22399;51.346;12.372;2024-02-26T05:59:39;2.70;99.90
36374;DHT22;22399;51.346;12.372;2024-02-26T06:02:08;2.70;99.90
36374;DHT22;22399;51.346;12.372;2024-02-26T06:04:36;2.70;99.90
36374;DHT22;22399;51.346;12.372;2024-02-26T06:07:08;2.70;99.90
36374;DHT22;22399;51.346;12.372;2024-02-26T06:09:37;2.70;99.90
36374;DHT22;22399;51.346;12.372;2024-02-26T06:12:07;2.80;99.90
36374;DHT22;22399;51.346;12.372;2024-02-26T06:14:35;2.80;99.90
36374;DHT22;22399;51.346;12.372;2024-02-26T06:17:05;2.80;99.90
36374;DHT22;22399;51.346;12.372;2024-02-26T06:19:34;2.90;99.90
36374;DHT22;22399;51.346;12.372;2024-02-26T06:22:03;2.90;99.90
36374;DHT22;22399;51.346;12.372;2024-02-26T06:24:32;2.90;99.90
36374;DHT22;22399;51.346;12.372;2024-02-26T06:27:00;3.00;99.90
36374;DHT22;22399;51.346;12.372;2024-02-26T06:29:29;3.10;99.90
36374;DHT22;22399;51.346;12.372;2024-02-26T06:31:57;3.10;99.90
36374;DHT22;22399;51.346;12.372;2024-02-26T06:34:27;3.10;99.90
36374;DHT22;22399;51.346;12.372;2024-02-26T06:36:56;3.10;99.90
36374;DHT22;22399;51.346;12.372;2024-02-26T06:39:24;3.10;99.90
36374;DHT22;22399;51.346;12.372;2024-02-26T06:41:53;3.10;99.90
36374;DHT22;22399;51.346;12.372;2024-02-26T06:44:27;3.10;99.90
36374;DHT22;22399;51.346;12.372;2024-02-26T06:46:59;3.10;99.90
36374;DHT22;22399;51.346;12.372;2024-02-26T06:49:29;3.20;99.90
36374;DHT22;22399;51.346;12.372;2024-02-26T06:51:57;3.20;99.90
36374;DHT22;22399;51.346;12.372;2024-02-26T06:54:26;3.20;99.90
36374;DHT22;22399;51.346;12.372;2024-02-26T06:56:54;3.30;99.90
36374;DHT22;22399;51.346;12.372;2024-02-26T06:59:23;3.40;99.90
36374;DHT22;22399;51.346;12.372;2024-02-26T07:01:51;3.40;99.90
36374;DHT22;22399;51.346;12.372;2024-02-26T07:04:22;3.50;99.90
36374;DHT22;22399;51.346;12.372;2024-02-26T07:06:51;3.70;99.90
36374;DHT22;22399;51.346;12.372;2024-02-26T07:09:20;3.80;99.90
36374;DHT22;22399;51.346;12.372;2024-02-26T07:11:49;3.90;99.90
36374;DHT22;22399;51.346;12.372;2024-02-26T07:14:17;3.90;99.90
36374;DHT22;22399;51.346;12.372;2024-02-26T07:16:45;4.00;99.90
36374;DHT22;22399;51.346;12.372;2024-02-26T07:19:14;4.10;99.90
36374;DHT22;22399;51.346;12.372;2024-02-26T07:21:46;4.30;99.90
36374;DHT22;22399;51.346;12.372;2024-02-26T07:25:03;4.40;99.90
36374;DHT22;22399;51.346;12.372;2024-02-26T07:27:57;4.70;99.90
36374;DHT22;22399;51.346;12.372;2024-02-26T07:30:48;5.20;99.90
36374;DHT22;22399;51.346;12.372;2024-02-26T07:33:17;5.60;99.90
36374;DHT22;22399;51.346;12.372;2024-02-26T07:35:45;5.90;99.90
36374;DHT22;22399;51.346;12.372;2024-02-26T07:38:14;6.20;99.90
36374;DHT22;22399;51.346;12.372;2024-02-26T07:40:59;6.50;99.90
36374;DHT22;22399;51.346;12.372;2024-02-26T07:43:30;6.70;99.90
36374;DHT22;22399;51.346;12.372;2024-02-26T07:45:58;6.80;99.90
36374;DHT22;22399;51.346;12.372;2024-02-26T07:48:26;6.90;99.90
36374;DHT22;22399;51.346;12.372;2024-02-26T07:50:55;7.10;99.90
36374;DHT22;22399;51.346;12.372;2024-02-26T07:53:23;7.30;99.90
36374;DHT22;22399;51.346;12.372;2024-02-26T07:55:51;7.30;99.90
36374;DHT22;22399;51.346;12.372;2024-02-26T07:58:23;7.40;99.90
36374;DHT22;22399;51.346;12.372;2024-02-26T08:00:52;7.60;99.90
36374;DHT22;22399;51.346;12.372;2024-02-26T08:03:20;7.70;99.90
36374;DHT22;22399;51.346;12.372;2024-02-26T08:05:50;7.80;99.90
36374;DHT22;22399;51.346;12.372;2024-02-26T08:08:18;7.80;99.90
36374;DHT22;22399;51.346;12.372;2024-02-26T08:10:47;7.70;99.90
36374;DHT22;22399;51.346;12.372;2024-02-26T08:13:15;7.70;99.90
36374;DHT22;22399;51.346;12.372;2024-02-26T08:15:45;7.60;99.90
36374;DHT22;22399;51.346;12.372;2024-02-26T08:18:13;7.50;99.90
36374;DHT22;22399;51.346;12.372;2024-02-26T08:20:43;7.50;99.90
36374;DHT22;22399;51.346;12.372;2024-02-26T08:23:11;7.60;99.90
36374;DHT22;22399;51.346;12.372;2024-02-26T08:25:40;7.50;99.90
36374;DHT22;22399;51.346;12.372;2024-02-26T08:28:08;7.50;99.90
36374;DHT22;22399;51.346;12.372;2024-02-26T08:30:38;7.50;99.90
36374;DHT22;22399;51.346;12.372;2024-02-26T08:33:07;7.80;99.90
36374;DHT22;22399;51.346;12.372;2024-02-26T08:35:37;7.90;99.90
36374;DHT22;22399;51.346;12.372;2024-02-26T08:38:05;8.30;99.90
36374;DHT22;22399;51.346;12.372;2024-02-26T08:40:34;8.40;99.90
36374;DHT22;22399;51.346;12.372;2024-02-26T08:43:02;8.60;99.90
36374;DHT22;22399;51.346;12.372;2024-02-26T08:45:30;8.90;99.90
36374;DHT22;22399;51.346;12.372;2024-02-26T08:47:59;9.30;99.90
36374;DHT22;22399;51.346;12.372;2024-02-26T08:50:29;9.40;99.90
36374;DHT22;22399;51.346;12.372;2024-02-26T08:52:57;9.60;99.90
36374;DHT22;22399;51.346;12.372;2024-02-26T08:55:32;9.80;99.90
36374;DHT22;22399;51.346;12.372;2024-02-26T08:58:01;9.80;99.90
36374;DHT22;22399;51.346;12.372;2024-02-26T09:00:29;9.90;99.90
36374;DHT22;22399;51.346;12.372;2024-02-26T09:02:58;10.10;99.90
36374;DHT22;22399;51.346;12.372;2024-02-26T09:05:32;10.40;99.90
36374;DHT22;22399;51.346;12.372;2024-02-26T09:08:01;10.90;99.90
36374;DHT22;22399;51.346;12.372;2024-02-26T09:10:29;11.20;99.90
36374;DHT22;22399;51.346;12.372;2024-02-26T09:12:59;11.50;99.90
36374;DHT22;22399;51.346;12.372;2024-02-26T09:15:27;11.80;99.90
36374;DHT22;22399;51.346;12.372;2024-02-26T09:17:56;11.70;99.90
36374;DHT22;22399;51.346;12.372;2024-02-26T09:20:25;12.00;99.90
36374;DHT22;22399;51.346;12.372;2024-02-26T09:22:54;12.60;99.90
36374;DHT22;22399;51.346;12.372;2024-02-26T09:25:23;12.70;99.90
36374;DHT22;22399;51.346;12.372;2024-02-26T09:27:51;12.60;99.90
36374;DHT22;22399;51.346;12.372;2024-02-26T09:30:20;12.80;99.90
36374;DHT22;22399;51.346;12.372;2024-02-26T09:32:49;12.90;99.90
36374;DHT22;22399;51.346;12.372;2024-02-26T09:35:18;12.60;99.90
36374;DHT22;22399;51.346;12.372;2024-02-26T09:37:47;12.60;99.90
36374;DHT22;22399;51.346;12.372;2024-02-26T09:40:17;12.50;99.90
36374;DHT22;22399;51.346;12.372;2024-02-26T09:42:45;12.90;99.90
36374;DHT22;22399;51.346;12.372;2024-02-26T09:45:18;12.80;99.90
36374;DHT22;22399;51.346;12.372;2024-02-26T09:47:48;12.50;99.90
36374;DHT22;22399;51.346;12.372;2024-02-26T09:50:17;12.30;99.90
36374;DHT22;22399;51.346;12.372;2024-02-26T09:52:50;12.40;99.90
36374;DHT22;22399;51.346;12.372;2024-02-26T09:55:20;12.50;99.90
36374;DHT22;22399;51.346;12.372;2024-02-26T09:57:48;12.50;99.90
36374;DHT22;22399;51.346;12.372;2024-02-26T10:00:21;12.60;99.90
36374;DHT22;22399;51.346;12.372;2024-02-26T10:02:50;12.50;99.90
36374;DHT22;22399;51.346;12.372;2024-02-26T10:05:19;12.50;99.90
36374;DHT22;22399;51.346;12.372;2024-02-26T10:07:48;12.50;99.90
36374;DHT22;22399;51.346;12.372;2024-02-26T10:10:17;12.50;99.90
36374;DHT22;22399;51.346;12.372;2024-02-26T10:12:47;12.70;99.90
36374;DHT22;22399;51.346;12.372;2024-02-26T10:15:15;12.90;99.90
36374;DHT22;22399;51.346;12.372;2024-02-26T10:17:44;13.10;99.90
36374;DHT22;22399;51.346;12.372;2024-02-26T10:20:13;12.90;99.90
36374;DHT22;22399;51.346;12.372;2024-02-26T10:22:43;13.00;99.90
36374;DHT22;22399;51.346;12.372;2024-02-26T10:25:11;13.20;99.90
36374;DHT22;22399;51.346;12.372;2024-02-26T10:27:40;13.60;99.90
36374;DHT22;22399;51.346;12.372;2024-02-26T10:30:18;13.50;99.90
36374;DHT22;22399;51.346;12.372;2024-02-26T10:32:49;13.30;99.60
36374;DHT22;22399;51.346;12.372;2024-02-26T10:35:18;13.20;99.00
36374;DHT22;22399;51.346;12.372;2024-02-26T10:37:50;12.90;99.20
36374;DHT22;22399;51.346;12.372;2024-02-26T10:40:20;12.90;98.80
36374;DHT22;22399;51.346;12.372;2024-02-26T10:42:48;12.90;98.70
36374;DHT22;22399;51.346;12.372;2024-02-26T10:45:18;12.80;98.30
36374;DHT22;22399;51.346;12.372;2024-02-26T10:47:47;12.80;98.40
36374;DHT22;22399;51.346;12.372;2024-02-26T10:50:16;12.80;97.70
36374;DHT22;22399;51.346;12.372;2024-02-26T10:52:45;12.70;97.70
36374;DHT22;22399;51.346;12.372;2024-02-26T10:55:15;12.50;97.30
36374;DHT22;22399;51.346;12.372;2024-02-26T10:57:46;12.30;97.10
36374;DHT22;22399;51.346;12.372;2024-02-26T11:00:18;12.30;97.00
36374;DHT22;22399;51.346;12.372;2024-02-26T11:02:47;12.30;96.90
36374;DHT22;22399;51.346;12.372;2024-02-26T11:05:17;12.20;96.60
36374;DHT22;22399;51.346;12.372;2024-02-26T11:07:45;12.10;96.40
36374;DHT22;22399;51.346;12.372;2024-02-26T11:10:15;12.10;96.30
36374;DHT22;22399;51.346;12.372;2024-02-26T11:12:46;12.20;96.30
36374;DHT22;22399;51.346;12.372;2024-02-26T11:15:15;12.30;96.30
36374;DHT22;22399;51.346;12.372;2024-02-26T11:17:46;12.50;95.90
36374;DHT22;22399;51.346;12.372;2024-02-26T11:20:16;12.50;95.50
36374;DHT22;22399;51.346;12.372;2024-02-26T11:22:45;12.40;95.50
36374;DHT22;22399;51.346;12.372;2024-02-26T11:25:14;12.50;95.30
36374;DHT22;22399;51.346;12.372;2024-02-26T11:27:49;12.40;95.10
36374;DHT22;22399;51.346;12.372;2024-02-26T11:30:18;12.50;95.20
36374;DHT22;22399;51.346;12.372;2024-02-26T11:32:49;12.50;94.90
36374;DHT22;22399;51.346;12.372;2024-02-26T11:35:18;12.60;94.90
36374;DHT22;22399;51.346;12.372;2024-02-26T11:37:56;12.50;94.60
36374;DHT22;22399;51.346;12.372;2024-02-26T11:40:25;12.20;94.50
36374;DHT22;22399;51.346;12.372;2024-02-26T11:42:54;12.20;94.50
36374;DHT22;22399;51.346;12.372;2024-02-26T11:45:56;12.20;94.70
36374;DHT22;22399;51.346;12.372;2024-02-26T11:48:29;12.30;94.40
36374;DHT22;22399;51.346;12.372;2024-02-26T11:50:57;12.30;94.30
36374;DHT22;22399;51.346;12.372;2024-02-26T11:53:27;12.30;94.10
36374;DHT22;22399;51.346;12.372;2024-02-26T11:56:25;12.40;94.00
36374;DHT22;22399;51.346;12.372;2024-02-26T11:59:03;12.30;93.90
36374;DHT22;22399;51.346;12.372;2024-02-26T12:01:41;12.30;93.90
36374;DHT22;22399;51.346;12.372;2024-02-26T12:04:18;12.40;94.00
36374;DHT22;22399;51.346;12.372;2024-02-26T12:06:51;12.50;94.00
36374;DHT22;22399;51.346;12.372;2024-02-26T12:09:33;12.60;93.60
36374;DHT22;22399;51.346;12.372;2024-02-26T12:12:04;12.40;93.40
36374;DHT22;22399;51.346;12.372;2024-02-26T12:14:34;12.30;93.40
36374;DHT22;22399;51.346;12.372;2024-02-26T12:17:04;12.20;93.60
36374;DHT22;22399;51.346;12.372;2024-02-26T12:19:36;12.20;93.80
36374;DHT22;22399;51.346;12.372;2024-02-26T12:22:10;12.30;93.80
36374;DHT22;22399;51.346;12.372;2024-02-26T12:24:40;12.30;93.40
36374;DHT22;22399;51.346;12.372;2024-02-26T12:27:09;12.40;93.40
36374;DHT22;22399;51.346;12.372;2024-02-26T12:29:37;12.50;93.60
36374;DHT22;22399;51.346;12.372;2024-02-26T12:32:06;12.40;93.30
36374;DHT22;22399;51.346;12.372;2024-02-26T12:34:37;12.30;93.30
36374;DHT22;22399;51.346;12.372;2024-02-26T12:37:06;12.20;93.40
36374;DHT22;22399;51.346;12.372;2024-02-26T12:39:37;12.20;93.50
36374;DHT22;22399;51.346;12.372;2024-02-26T12:42:06;12.20;93.50
36374;DHT22;22399;51.346;12.372;2024-02-26T12:44:34;12.30;93.70
36374;DHT22;22399;51.346;12.372;2024-02-26T12:47:04;12.50;93.60
36374;DHT22;22399;51.346;12.372;2024-02-26T12:49:32;12.50;93.30
36374;DHT22;22399;51.346;12.372;2024-02-26T12:52:03;12.30;93.20
36374;DHT22;22399;51.346;12.372;2024-02-26T12:54:32;12.20;93.40
36374;DHT22;22399;51.346;12.372;2024-02-26T12:57:03;12.20;93.50
36374;DHT22;22399;51.346;12.372;2024-02-26T12:59:34;12.30;93.40
36374;DHT22;22399;51.346;12.372;2024-02-26T13:02:03;12.40;93.40
36374;DHT22;22399;51.346;12.372;2024-02-26T13:04:34;12.30;93.30
36374;DHT22;22399;51.346;12.372;2024-02-26T13:07:05;12.40;93.40
36374;DHT22;22399;51.346;12.372;2024-02-26T13:09:34;12.50;93.40
36374;DHT22;22399;51.346;12.372;2024-02-26T13:12:05;12.60;93.20
36374;DHT22;22399;51.346;12.372;2024-02-26T13:14:34;12.60;93.30
36374;DHT22;22399;51.346;12.372;2024-02-26T13:17:03;12.90;93.40
36374;DHT22;22399;51.346;12.372;2024-02-26T13:19:32;12.90;93.10
36374;DHT22;22399;51.346;12.372;2024-02-26T13:22:06;13.00;93.20
36374;DHT22;22399;51.346;12.372;2024-02-26T13:24:34;13.20;93.00
36374;DHT22;22399;51.346;12.372;2024-02-26T13:27:03;13.30;92.70
36374;DHT22;22399;51.346;12.372;2024-02-26T13:29:33;13.20;92.50
36374;DHT22;22399;51.346;12.372;2024-02-26T13:32:03;13.00;92.40
36374;DHT22;22399;51.346;12.372;2024-02-26T13:34:33;12.90;92.70
36374;DHT22;22399;51.346;12.372;2024-02-26T13:37:05;12.90;92.70
36374;DHT22;22399;51.346;12.372;2024-02-26T13:39:34;12.80;92.70
36374;DHT22;22399;51.346;12.372;2024-02-26T13:42:08;12.70;92.50
36374;DHT22;22399;51.346;12.372;2024-02-26T13:44:38;12.70;92.60
36374;DHT22;22399;51.346;12.372;2024-02-26T13:47:08;12.70;92.50
36374;DHT22;22399;51.346;12.372;2024-02-26T13:49:36;12.60;92.50
36374;DHT22;22399;51.346;12.372;2024-02-26T13:52:06;12.60;92.50
36374;DHT22;22399;51.346;12.372;2024-02-26T13:54:34;12.60;92.90
36374;DHT22;22399;51.346;12.372;2024-02-26T13:57:06;12.80;92.70
36374;DHT22;22399;51.346;12.372;2024-02-26T13:59:35;12.90;92.30
36374;DHT22;22399;51.346;12.372;2024-02-26T14:02:04;12.80;92.20
36374;DHT22;22399;51.346;12.372;2024-02-26T14:04:33;12.70;92.10
36374;DHT22;22399;51.346;12.372;2024-02-26T14:07:02;12.70;92.30
36374;DHT22;22399;51.346;12.372;2024-02-26T14:09:32;12.60;92.20
36374;DHT22;22399;51.346;12.372;2024-02-26T14:12:15;12.50;92.20
36374;DHT22;22399;51.346;12.372;2024-02-26T14:14:48;12.40;92.20
36374;DHT22;22399;51.346;12.372;2024-02-26T14:17:17;12.40;92.20
36374;DHT22;22399;51.346;12.372;2024-02-26T14:19:45;12.40;92.10
36374;DHT22;22399;51.346;12.372;2024-02-26T14:22:15;12.20;92.00
36374;DHT22;22399;51.346;12.372;2024-02-26T14:24:48;12.20;92.10
36374;DHT22;22399;51.346;12.372;2024-02-26T14:27:17;12.20;92.10
36374;DHT22;22399;51.346;12.372;2024-02-26T14:29:47;12.30;92.10
36374;DHT22;22399;51.346;12.372;2024-02-26T14:32:16;12.30;92.00
36374;DHT22;22399;51.346;12.372;2024-02-26T14:34:47;12.20;91.90
36374;DHT22;22399;51.346;12.372;2024-02-26T14:37:16;12.20;91.80
36374;DHT22;22399;51.346;12.372;2024-02-26T14:39:44;12.20;91.80
36374;DHT22;22399;51.346;12.372;2024-02-26T14:42:15;12.00;92.10
36374;DHT22;22399;51.346;12.372;2024-02-26T14:44:44;11.90;91.80
36374;DHT22;22399;51.346;12.372;2024-02-26T14:47:14;11.80;91.80
36374;DHT22;22399;51.346;12.372;2024-02-26T14:49:43;11.80;91.80
36374;DHT22;22399;51.346;12.372;2024-02-26T14:52:14;11.70;91.80
36374;DHT22;22399;51.346;12.372;2024-02-26T14:54:43;11.60;91.80
36374;DHT22;22399;51.346;12.372;2024-02-26T14:57:11;11.60;91.90
36374;DHT22;22399;51.346;12.372;2024-02-26T14:59:42;11.40;91.90
36374;DHT22;22399;51.346;12.372;2024-02-26T15:02:11;11.30;91.90
36374;DHT22;22399;51.346;12.372;2024-02-26T15:04:39;11.30;92.00
36374;DHT22;22399;51.346;12.372;2024-02-26T15:07:08;11.30;92.10
36374;DHT22;22399;51.346;12.372;2024-02-26T15:09:41;11.30;92.10
36374;DHT22;22399;51.346;12.372;2024-02-26T15:12:12;11.20;92.10
36374;DHT22;22399;51.346;12.372;2024-02-26T15:14:42;11.20;92.20
36374;DHT22;22399;51.346;12.372;2024-02-26T15:17:13;11.20;92.20
36374;DHT22;22399;51.346;12.372;2024-02-26T15:19:41;11.10;92.30
36374;DHT22;22399;51.346;12.372;2024-02-26T15:22:10;11.10;92.30
36374;DHT22;22399;51.346;12.372;2024-02-26T15:24:38;11.20;92.40
36374;DHT22;22399;51.346;12.372;2024-02-26T15:27:07;11.10;92.40
36374;DHT22;22399;51.346;12.372;2024-02-26T15:29:38;11.10;92.40
36374;DHT22;22399;51.346;12.372;2024-02-26T15:32:08;11.10;92.40
36374;DHT22;22399;51.346;12.372;2024-02-26T15:34:36;11.10;92.50
36374;DHT22;22399;51.346;12.372;2024-02-26T15:37:05;11.00;92.50
36374;DHT22;22399;51.346;12.372;2024-02-26T15:39:42;11.00;92.50
36374;DHT22;22399;51.346;12.372;2024-02-26T15:42:12;11.00;92.60